Time;durP1;ratioP1;P1;durP2;ratioP2;P2;SDS_P1;SDS_P2;PMS_P1;PMS_P2;Temp;Humidity;BMP_temperature;BMP_pressure;BME280_temperature;BME280_humidity;BME280_pressure;Samples;Min_cycle;Max_cycle;Signal;HPM_P1;HPM_P2
2024/01/05 00:00:11;;;;;;;14.60;4.18;;;;;;;10.94;58.89;99600.88;672339;29;1105;-95
2024/01/05 00:00:31;;;;;;;11.68;4.00;;;;;;;11.02;58.78;99613.97;669863;29;1278;-95
2024/01/05 00:00:52;;;;;;;9.02;3.65;;;;;;;11.01;58.99;99612.25;672631;29;1314;-95
2024/01/05 00:01:15;;;;;;;9.63;3.53;;;;;;;11.02;58.75;99599.22;672751;29;1147;-95
2024/01/05 00:01:36;;;;;;;5.85;3.10;;;;;;;11.00;58.78;99600.91;667653;29;1304;-95
2024/01/05 00:01:57;;;;;;;6.35;3.20;;;;;;;11.01;58.97;99601.78;669917;29;1393;-95
2024/01/05 00:02:18;;;;;;;4.88;3.20;;;;;;;11.00;58.77;99603.53;675154;29;1163;-96
2024/01/05 00:02:39;;;;;;;6.50;3.78;;;;;;;11.00;58.99;99595.69;675278;29;1222;-94
2024/01/05 00:03:02;;;;;;;6.68;3.90;;;;;;;11.04;58.53;99601.81;672830;29;1206;-96
2024/01/05 00:03:23;;;;;;;7.50;3.92;;;;;;;11.01;58.90;99591.34;670285;29;1323;-95
2024/01/05 00:03:44;;;;;;;7.82;3.70;;;;;;;10.96;59.02;99591.31;670218;29;1107;-94
2024/01/05 00:04:05;;;;;;;7.93;3.90;;;;;;;11.07;58.72;99607.06;670132;29;1238;-96
2024/01/05 00:04:26;;;;;;;7.32;3.58;;;;;;;10.96;58.95;99588.72;669996;29;1196;-95
2024/01/05 00:04:47;;;;;;;10.05;3.70;;;;;;;11.01;58.87;99599.19;672708;29;1331;-96
2024/01/05 00:05:08;;;;;;;9.95;3.50;;;;;;;10.93;58.95;99589.56;670240;29;1192;-96
2024/01/05 00:05:29;;;;;;;11.55;3.80;;;;;;;10.95;58.87;99592.19;669926;29;1270;-94
2024/01/05 00:05:50;;;;;;;8.15;4.00;;;;;;;10.98;58.97;99597.44;672778;29;1378;-96
2024/01/05 00:06:10;;;;;;;8.27;3.90;;;;;;;11.01;59.05;99596.56;670070;29;1314;-96
2024/01/05 00:06:38;;;;;;;8.27;3.97;;;;;;;10.95;58.85;99598.25;670189;29;1259;-96
2024/01/05 00:06:58;;;;;;;8.48;3.88;;;;;;;10.92;58.99;99585.22;669950;29;1447;-95
2024/01/05 00:07:19;;;;;;;8.77;4.10;;;;;;;10.92;58.71;99586.94;672370;29;1233;-95
2024/01/05 00:07:40;;;;;;;9.80;4.20;;;;;;;10.96;59.03;99589.56;672612;29;1297;-95
2024/01/05 00:11:33;;;;;;;8.45;4.43;;;;;;;11.05;58.82;99580.09;678060;29;698;-96
2024/01/05 00:12:12;;;;;;;8.38;4.00;;;;;;;11.08;59.03;99590.53;675354;29;707;-96
2024/01/05 00:12:52;;;;;;;7.18;3.45;;;;;;;11.06;59.07;99581.84;675155;29;1273;-95
2024/01/05 00:13:13;;;;;;;8.90;3.10;;;;;;;11.05;58.95;99578.34;667426;29;1459;-96
2024/01/05 00:13:34;;;;;;;8.13;3.03;;;;;;;11.03;58.84;99573.97;665130;29;1305;-95
2024/01/05 00:13:57;;;;;;;7.50;3.00;;;;;;;11.10;58.77;99581.84;672655;29;1188;-96
2024/01/05 00:14:18;;;;;;;7.88;3.30;;;;;;;11.03;58.97;99568.75;675275;29;1305;-96
2024/01/05 00:14:41;;;;;;;9.00;3.58;;;;;;;11.09;58.94;99584.44;670005;29;1218;-96
2024/01/05 00:15:03;;;;;;;9.05;3.70;;;;;;;11.11;58.77;99577.50;672649;29;1222;-96
2024/01/05 00:15:26;;;;;;;6.90;3.30;;;;;;;11.12;58.97;99574.00;667528;29;1266;-95
2024/01/05 00:15:47;;;;;;;5.85;3.03;;;;;;;11.13;58.73;99580.13;665132;29;1347;-96
2024/01/05 00:16:16;;;;;;;9.30;2.90;;;;;;;11.14;58.86;99572.31;669976;29;1562;-95
2024/01/05 00:16:37;;;;;;;10.98;3.80;;;;;;;11.22;58.74;99588.00;670197;29;1256;-95
2024/01/05 00:16:59;;;;;;;12.98;3.97;;;;;;;11.16;58.99;99578.41;669969;29;1416;-95
2024/01/05 00:17:20;;;;;;;11.32;3.45;;;;;;;11.06;58.92;99559.19;672694;29;1362;-96
2024/01/05 00:17:43;;;;;;;8.57;2.72;;;;;;;11.08;58.69;99567.03;669982;29;1295;-96
2024/01/05 00:18:06;;;;;;;11.46;2.82;;;;;;;11.07;59.04;99566.16;674975;29;1438;-96
2024/01/05 00:18:27;;;;;;;11.52;3.00;;;;;;;11.03;58.80;99564.41;672421;29;1334;-96
2024/01/05 00:18:50;;;;;;;9.05;3.13;;;;;;;11.01;59.04;99560.91;669937;29;1919;-94
2024/01/05 00:19:10;;;;;;;9.15;3.30;;;;;;;11.08;58.99;99559.22;669977;29;1373;-96
2024/01/05 00:19:31;;;;;;;9.60;3.65;;;;;;;11.06;58.90;99563.56;664906;29;1347;-95
2024/01/05 00:19:52;;;;;;;13.18;3.83;;;;;;;11.06;58.86;99556.59;670088;29;1180;-95
2024/01/05 00:20:13;;;;;;;10.60;3.60;;;;;;;11.18;58.87;99578.44;674233;29;1326;-95
2024/01/05 00:20:34;;;;;;;7.43;3.40;;;;;;;11.07;58.71;99565.31;667718;29;1323;-96
2024/01/05 00:20:55;;;;;;;6.07;3.35;;;;;;;11.14;59.17;99567.09;665138;29;1546;-96
2024/01/05 00:21:20;;;;;;;6.38;3.33;;;;;;;11.05;58.96;99548.75;667404;29;1164;-95
2024/01/05 00:21:41;;;;;;;5.45;3.10;;;;;;;11.12;58.94;99550.53;670178;29;1426;-96
2024/01/05 00:22:02;;;;;;;4.45;3.00;;;;;;;11.09;58.86;99553.13;677670;29;1154;-95
2024/01/05 00:22:23;;;;;;;5.23;3.37;;;;;;;11.16;58.94;99570.56;672760;29;1174;-96
2024/01/05 00:22:47;;;;;;;5.13;3.20;;;;;;;11.17;58.93;99564.47;665043;29;1555;-95
2024/01/05 00:23:08;;;;;;;5.80;3.20;;;;;;;11.22;58.84;99565.41;670157;29;1260;-96
2024/01/05 00:23:31;;;;;;;9.25;3.28;;;;;;;11.14;58.87;99554.03;670052;29;1148;-96
2024/01/05 00:23:54;;;;;;;9.27;3.13;;;;;;;11.11;59.04;99556.59;677839;29;1197;-95
2024/01/05 00:24:15;;;;;;;10.80;3.50;;;;;;;11.09;59.05;99553.13;672580;29;1268;-96
2024/01/05 00:24:37;;;;;;;7.87;3.40;;;;;;;11.16;58.97;99565.34;670243;29;1203;-95
2024/01/05 00:24:57;;;;;;;8.07;3.20;;;;;;;11.09;58.94;99550.50;672594;29;1385;-96
2024/01/05 00:25:21;;;;;;;8.57;3.13;;;;;;;11.18;59.08;99568.84;672532;29;1364;-96
2024/01/05 00:25:42;;;;;;;8.73;3.58;;;;;;;11.13;59.03;99557.50;670100;29;1244;-96
2024/01/05 00:26:03;;;;;;;7.72;3.55;;;;;;;11.10;58.87;99549.66;675194;29;1450;-96
2024/01/05 00:26:25;;;;;;;6.07;3.17;;;;;;;11.06;59.14;99537.44;670101;29;1115;-95
2024/01/05 00:30:28;;;;;;;6.15;2.78;;;;;;;11.16;58.83;99539.25;677684;29;1262;-96
2024/01/05 00:30:51;;;;;;;3.17;2.50;;;;;;;11.29;58.88;99557.59;670052;29;1433;-95
2024/01/05 00:31:17;;;;;;;3.60;2.67;;;;;;;11.31;58.90;99566.31;667528;29;1169;-96
2024/01/05 00:31:39;;;;;;;4.30;2.60;;;;;;;11.23;58.79;99545.38;675255;29;1171;-96
2024/01/05 00:32:02;;;;;;;4.30;2.40;;;;;;;11.34;58.86;99563.69;672620;29;1395;-96
2024/01/05 00:32:23;;;;;;;5.10;2.67;;;;;;;11.24;58.76;99542.78;664925;29;1236;-96
2024/01/05 00:32:45;;;;;;;9.23;3.10;;;;;;;11.27;58.65;99552.38;667307;29;1111;-96
2024/01/05 00:33:10;;;;;;;8.32;3.08;;;;;;;11.29;59.01;99550.63;675151;29;1124;-96
2024/01/05 00:33:33;;;;;;;7.35;2.83;;;;;;;11.28;58.85;99550.59;670137;29;1467;-95
2024/01/05 00:34:00;;;;;;;5.32;2.70;;;;;;;11.33;58.79;99555.00;672829;29;1298;-95
2024/01/05 00:34:21;;;;;;;8.98;3.08;;;;;;;11.30;58.69;99551.50;670028;29;1275;-96
2024/01/05 00:34:41;;;;;;;9.93;2.97;;;;;;;11.29;58.74;99545.41;672627;29;1338;-96
2024/01/05 00:35:05;;;;;;;9.70;2.90;;;;;;;11.24;58.75;99542.78;675109;29;1277;-96
2024/01/05 00:35:30;;;;;;;5.47;2.58;;;;;;;11.31;59.04;99553.25;672375;29;1227;-96
2024/01/05 00:35:54;;;;;;;4.60;2.50;;;;;;;11.23;58.99;99548.84;675347;29;1275;-96
2024/01/05 00:36:17;;;;;;;6.25;2.88;;;;;;;11.20;58.99;99542.75;672395;29;1423;-96
2024/01/05 00:36:38;;;;;;;6.78;2.70;;;;;;;11.24;58.91;99549.72;678033;29;1216;-95
2024/01/05 00:37:02;;;;;;;5.70;2.33;;;;;;;11.24;58.69;99548.00;672083;29;1333;-96
2024/01/05 00:37:22;;;;;;;5.20;2.33;;;;;;;11.24;58.88;99545.38;667415;29;1491;-95
2024/01/05 00:37:43;;;;;;;3.22;2.10;;;;;;;11.21;58.71;99540.16;672495;29;1327;-95
2024/01/05 00:38:04;;;;;;;4.30;2.65;;;;;;;11.30;58.99;99551.50;672726;29;1233;-95
2024/01/05 00:38:31;;;;;;;5.28;2.60;;;;;;;11.26;59.12;99544.50;677761;29;1695;-95
2024/01/05 00:38:55;;;;;;;7.47;2.70;;;;;;;11.28;59.07;99537.56;670098;29;1935;-96
2024/01/05 00:39:17;;;;;;;11.52;3.05;;;;;;;11.24;58.95;99542.78;664958;29;1413;-96
2024/01/05 00:39:41;;;;;;;10.90;3.10;;;;;;;11.35;58.79;99552.38;669942;29;1252;-96
2024/01/05 00:40:03;;;;;;;9.60;3.60;;;;;;;11.32;59.02;99544.56;675132;29;1392;-96
2024/01/05 00:40:24;;;;;;;6.35;3.28;;;;;;;11.33;58.98;99538.47;669987;29;1182;-96
2024/01/05 00:40:45;;;;;;;5.25;2.97;;;;;;;11.27;58.99;99533.19;675007;29;1378;-96
2024/01/05 00:41:14;;;;;;;6.03;3.00;;;;;;;11.35;58.91;99541.94;672800;29;1241;-96
2024/01/05 00:41:37;;;;;;;6.18;2.92;;;;;;;11.35;58.78;99541.94;664999;29;1358;-96
2024/01/05 00:42:01;;;;;;;7.10;2.67;;;;;;;11.32;58.82;99534.09;672556;29;1398;-96
2024/01/05 00:42:24;;;;;;;6.22;2.50;;;;;;;11.35;58.58;99544.56;670071;29;1310;-96
2024/01/05 00:42:48;;;;;;;9.20;2.90;;;;;;;11.34;59.01;99543.69;672569;29;1508;-96
2024/01/05 00:43:09;;;;;;;6.38;2.88;;;;;;;11.36;58.96;99543.69;672700;29;1036;-96
2024/01/05 00:43:30;;;;;;;9.63;3.20;;;;;;;11.43;58.90;99558.53;675116;29;1235;-96
2024/01/05 00:43:54;;;;;;;7.47;2.80;;;;;;;11.32;58.77;99534.09;670052;29;1359;-96
2024/01/05 00:44:26;;;;;;;5.93;2.53;;;;;;;11.35;58.87;99544.56;675202;29;1243;-95
2024/01/05 00:44:50;;;;;;;3.03;2.38;;;;;;;11.34;58.88;99535.88;672465;29;1294;-96
2024/01/05 00:45:16;;;;;;;6.40;2.50;;;;;;;11.46;58.81;99553.34;670397;29;1310;-96
2024/01/05 00:45:40;;;;;;;7.43;2.47;;;;;;;11.34;58.96;99532.38;675256;29;1386;-96
2024/01/05 00:46:08;;;;;;;5.40;2.22;;;;;;;11.36;58.87;99528.00;667735;29;1425;-96
2024/01/05 00:46:33;;;;;;;9.43;2.40;;;;;;;11.39;58.57;99543.72;670296;29;1331;-96
2024/01/05 00:46:58;;;;;;;10.50;2.10;;;;;;;11.35;58.78;99534.09;672905;29;1328;-96
2024/01/05 00:47:27;;;;;;;6.07;1.95;;;;;;;11.32;58.63;99529.72;672935;29;1216;-96
2024/01/05 00:48:08;;;;;;;4.30;2.30;;;;;;;11.35;58.72;99532.38;676905;29;1186;-96
2024/01/05 00:48:39;;;;;;;8.23;2.60;;;;;;;11.40;58.81;99544.56;674720;29;1525;-96
2024/01/05 00:49:03;;;;;;;8.10;2.70;;;;;;;11.37;58.61;99537.63;669019;29;1268;-96
2024/01/05 00:49:37;;;;;;;6.95;2.83;;;;;;;11.30;58.85;99531.47;672581;29;1538;-96
2024/01/05 00:54:07;;;;;;;4.78;2.38;;;;;;;11.42;58.75;99525.44;680251;29;1318;-96
2024/01/05 00:54:37;;;;;;;10.40;2.22;;;;;;;11.31;58.95;99501.03;675853;29;1527;-96
2024/01/05 00:55:14;;;;;;;8.82;2.35;;;;;;;11.31;58.80;99501.03;671180;29;1236;-96
2024/01/05 00:55:38;;;;;;;2.95;1.77;;;;;;;11.29;58.78;99502.75;665583;29;1333;-96
2024/01/05 00:56:22;;;;;;;5.82;2.10;;;;;;;11.33;58.63;99499.28;670926;29;1367;-95
2024/01/05 00:56:48;;;;;;;7.93;2.65;;;;;;;11.30;58.83;99491.44;675634;29;1369;-95
2024/01/05 00:57:16;;;;;;;7.53;2.85;;;;;;;11.31;58.59;99495.81;666924;29;1241;-96
2024/01/05 00:57:53;;;;;;;7.55;3.10;;;;;;;11.38;59.02;99508.88;668762;29;1443;-96
2024/01/05 00:58:20;;;;;;;8.50;3.00;;;;;;;11.37;58.67;99503.66;665096;29;1300;-96
2024/01/05 00:58:50;;;;;;;9.40;2.75;;;;;;;11.31;58.77;99491.44;673212;29;1967;-96
2024/01/05 00:59:39;;;;;;;6.05;2.53;;;;;;;11.32;58.86;99492.31;673365;29;960;-96
2024/01/05 01:00:09;;;;;;;10.48;2.70;;;;;;;11.31;59.01;99487.97;668354;29;1597;-96
2024/01/05 01:00:32;;;;;;;11.57;2.80;;;;;;;11.38;58.96;99498.44;670641;29;1263;-96
2024/01/05 01:01:10;;;;;;;9.10;2.50;;;;;;;11.38;58.81;99497.56;673343;29;1263;-96
2024/01/05 01:01:43;;;;;;;8.02;2.20;;;;;;;11.37;59.03;99501.06;671082;29;1370;-96
2024/01/05 01:02:13;;;;;;;6.10;2.30;;;;;;;11.41;58.68;99505.41;666308;29;1540;-96
2024/01/05 01:02:40;;;;;;;5.10;2.38;;;;;;;11.37;58.72;99496.69;670759;29;1353;-96
2024/01/05 01:03:14;;;;;;;5.88;2.35;;;;;;;11.36;58.77;99494.06;673162;29;1248;-96
2024/01/05 01:03:40;;;;;;;6.95;2.30;;;;;;;11.36;58.78;99488.84;667873;29;1275;-96
2024/01/05 01:04:06;;;;;;;5.43;2.40;;;;;;;11.35;58.66;99489.72;670393;29;1379;-96
2024/01/05 01:04:46;;;;;;;4.80;2.67;;;;;;;11.34;58.86;99481.00;675687;29;1117;-96
2024/01/05 01:05:21;;;;;;;4.15;2.50;;;;;;;11.46;58.94;99500.19;670872;29;1203;-96
2024/01/05 01:05:47;;;;;;;4.60;2.15;;;;;;;11.35;59.02;99484.47;667806;29;1251;-96
2024/01/05 01:06:31;;;;;;;4.60;1.80;;;;;;;11.36;59.13;99487.09;672749;29;1268;-96
2024/01/05 01:06:57;;;;;;;3.55;2.00;;;;;;;11.33;58.90;99479.28;668073;29;1279;-96
2024/01/05 01:07:22;;;;;;;8.55;2.50;;;;;;;11.36;58.90;99478.38;667958;29;1294;-96
2024/01/05 01:07:49;;;;;;;7.93;2.22;;;;;;;11.37;59.05;99477.56;670176;29;1462;-96
2024/01/05 01:08:32;;;;;;;4.80;1.80;;;;;;;11.43;59.03;99490.59;670174;29;1127;-96
2024/01/05 01:08:53;;;;;;;4.65;1.92;;;;;;;11.41;58.94;99484.50;672316;29;1279;-96
2024/01/05 01:09:21;;;;;;;5.47;2.20;;;;;;;11.45;59.18;99490.63;670745;29;1373;-96
2024/01/05 01:09:44;;;;;;;6.53;2.10;;;;;;;11.45;59.08;99488.00;667464;29;1356;-96
2024/01/05 01:10:05;;;;;;;8.23;2.08;;;;;;;11.46;58.90;99490.63;667691;29;1365;-96
2024/01/05 01:10:28;;;;;;;6.53;2.00;;;;;;;11.41;59.22;99486.28;672523;29;1506;-96
2024/01/05 01:11:19;;;;;;;3.80;2.20;;;;;;;11.37;58.97;99474.94;675179;29;1167;-96
2024/01/05 01:11:42;;;;;;;4.68;2.17;;;;;;;11.37;59.20;99477.56;667903;29;1374;-96
2024/01/05 01:12:10;;;;;;;4.40;2.20;;;;;;;11.42;59.08;99475.81;670567;29;1145;-96
2024/01/05 01:12:31;;;;;;;6.65;2.30;;;;;;;11.44;59.09;99481.03;670512;29;1268;-96
2024/01/05 01:12:57;;;;;;;6.85;2.25;;;;;;;11.47;58.91;99483.66;670663;29;1295;-96
2024/01/05 01:13:20;;;;;;;6.77;2.20;;;;;;;11.54;59.18;99487.19;667835;29;1184;-96
2024/01/05 01:13:52;;;;;;;6.15;2.40;;;;;;;11.55;58.87;99478.47;670886;29;1369;-96
2024/01/05 01:14:13;;;;;;;4.80;2.20;;;;;;;11.51;59.02;99477.59;668041;29;1215;-96
2024/01/05 01:14:46;;;;;;;3.10;2.08;;;;;;;11.57;59.00;99487.19;665790;29;1116;-96
2024/01/05 01:15:10;;;;;;;2.38;2.00;;;;;;;11.47;59.15;99468.88;670455;29;1282;-96
2024/01/05 01:15:35;;;;;;;2.70;1.88;;;;;;;11.49;58.80;99468.88;670542;29;1125;-96
2024/01/05 01:16:05;;;;;;;2.60;1.60;;;;;;;11.54;59.20;99481.97;665664;29;1300;-96
2024/01/05 01:16:31;;;;;;;2.88;1.50;;;;;;;11.49;59.00;99464.50;670637;29;1271;-96
2024/01/05 01:16:56;;;;;;;3.50;1.60;;;;;;;11.56;59.00;99475.00;668033;29;1244;-96
2024/01/05 01:17:22;;;;;;;5.10;2.05;;;;;;;11.59;59.20;99485.44;662978;29;1297;-96
2024/01/05 01:17:43;;;;;;;5.97;2.30;;;;;;;11.60;59.02;99479.34;667982;29;1098;-96
2024/01/05 01:18:07;;;;;;;7.60;2.50;;;;;;;11.50;58.60;99465.41;673124;29;1191;-96
2024/01/05 01:18:28;;;;;;;9.90;2.20;;;;;;;11.55;58.79;99473.25;667950;29;1263;-96
2024/01/05 01:18:51;;;;;;;9.13;2.10;;;;;;;11.54;59.07;99474.97;666291;29;1966;-96
2024/01/05 01:19:12;;;;;;;7.00;1.98;;;;;;;11.66;58.79;99489.84;675645;29;1483;-96
2024/01/05 01:19:37;;;;;;;3.20;1.75;;;;;;;11.63;58.93;99474.16;667998;29;1097;-95
2024/01/05 01:20:00;;;;;;;4.00;2.08;;;;;;;11.58;59.00;99473.25;665588;29;1363;-96
2024/01/05 01:20:23;;;;;;;4.43;2.20;;;;;;;11.56;59.09;99464.53;670453;29;1310;-96
2024/01/05 01:20:44;;;;;;;5.50;2.55;;;;;;;11.63;58.92;99476.75;670499;29;1302;-96
2024/01/05 01:21:06;;;;;;;5.35;2.60;;;;;;;11.56;58.95;99473.22;672691;29;1203;-96
2024/01/05 01:21:27;;;;;;;5.38;2.55;;;;;;;11.58;58.80;99470.63;670380;29;1243;-96
2024/01/05 01:21:48;;;;;;;4.43;2.40;;;;;;;11.57;58.96;99471.50;668055;29;1208;-96
2024/01/05 01:22:11;;;;;;;3.90;2.13;;;;;;;11.61;58.98;99479.34;670379;29;1344;-96
2024/01/05 01:22:34;;;;;;;3.90;2.50;;;;;;;11.60;58.81;99477.63;675702;29;1185;-96
2024/01/05 01:23:06;;;;;;;6.90;2.80;;;;;;;11.68;58.98;99479.41;673012;29;1337;-96
2024/01/05 01:23:29;;;;;;;6.15;2.45;;;;;;;11.63;59.09;99477.59;672988;29;1330;-96
2024/01/05 01:23:52;;;;;;;4.47;2.30;;;;;;;11.60;58.83;99466.28;670593;29;1344;-96
2024/01/05 01:24:13;;;;;;;5.22;2.20;;;;;;;11.71;58.83;99479.41;670478;29;1280;-96
2024/01/05 01:24:36;;;;;;;5.75;2.20;;;;;;;11.71;58.86;99479.41;670374;29;1268;-96
2024/01/05 01:24:59;;;;;;;4.68;2.00;;;;;;;11.69;58.90;99478.53;667951;29;1248;-96
2024/01/05 01:25:27;;;;;;;3.70;2.10;;;;;;;11.70;59.08;99472.44;665448;29;1330;-96
2024/01/05 01:25:57;;;;;;;5.43;2.20;;;;;;;11.71;58.92;99480.28;670553;29;1384;-96
2024/01/05 01:26:17;;;;;;;5.38;2.22;;;;;;;11.63;58.76;99472.38;667941;29;1165;-96
2024/01/05 01:26:41;;;;;;;5.25;2.45;;;;;;;11.66;58.67;99471.56;673145;29;1230;-96
2024/01/05 01:27:09;;;;;;;6.90;2.42;;;;;;;11.62;58.85;99460.19;673062;29;1327;-96
2024/01/05 01:27:37;;;;;;;6.05;2.00;;;;;;;11.70;58.99;99477.66;667927;29;1124;-96
2024/01/05 01:28:08;;;;;;;3.33;1.90;;;;;;;11.64;58.90;99468.94;670545;29;1381;-96
2024/01/05 01:28:35;;;;;;;5.30;2.20;;;;;;;11.69;58.78;99470.69;670567;29;1412;-96
2024/01/05 01:29:00;;;;;;;4.90;2.20;;;;;;;11.73;59.00;99475.09;672826;29;1313;-95
2024/01/05 01:29:25;;;;;;;3.90;2.17;;;;;;;11.75;58.99;99476.81;675669;29;1316;-96
2024/01/05 01:29:53;;;;;;;8.63;2.60;;;;;;;11.72;59.00;99470.69;667811;29;1244;-96
2024/01/05 01:30:16;;;;;;;13.90;2.70;;;;;;;11.72;58.80;99474.19;665402;29;1200;-96
2024/01/05 01:30:42;;;;;;;14.27;2.80;;;;;;;11.75;58.96;99476.81;667717;29;1226;-96
2024/01/05 01:31:09;;;;;;;11.85;2.45;;;;;;;11.79;58.94;99488.13;665491;29;1414;-96
2024/01/05 01:31:30;;;;;;;3.55;2.20;;;;;;;11.71;58.88;99469.84;670394;29;1165;-95
2024/01/05 01:31:51;;;;;;;7.13;2.47;;;;;;;11.65;58.67;99464.59;670411;29;1124;-95
2024/01/05 01:32:14;;;;;;;7.35;2.60;;;;;;;11.67;58.81;99467.22;672756;29;1490;-96
2024/01/05 01:32:36;;;;;;;7.70;2.80;;;;;;;11.73;58.96;99472.47;673090;29;1238;-96
2024/01/05 01:32:57;;;;;;;4.10;2.40;;;;;;;11.64;58.78;99462.81;665470;29;1283;-96
2024/01/05 01:33:18;;;;;;;3.90;2.20;;;;;;;11.65;58.67;99460.25;672885;29;1217;-96
2024/01/05 01:33:39;;;;;;;4.43;2.10;;;;;;;11.69;58.99;99460.25;670646;29;1186;-96
2024/01/05 01:34:05;;;;;;;4.43;2.30;;;;;;;11.76;58.81;99478.56;670553;29;1400;-96
2024/01/05 01:34:28;;;;;;;3.25;1.90;;;;;;;11.73;58.91;99473.31;668115;29;1299;-96
2024/01/05 01:34:53;;;;;;;1.92;1.70;;;;;;;11.69;58.92;99471.59;668086;29;1149;-96
2024/01/05 01:35:23;;;;;;;2.33;1.85;;;;;;;11.73;58.68;99480.31;673026;29;1158;-96
2024/01/05 01:35:44;;;;;;;3.30;2.10;;;;;;;11.77;58.96;99488.16;675521;29;1447;-96
2024/01/05 01:36:06;;;;;;;3.80;2.08;;;;;;;11.75;58.92;99471.56;670251;29;1210;-96
2024/01/05 01:36:31;;;;;;;4.88;2.20;;;;;;;11.72;58.72;99475.91;675659;29;1433;-96
2024/01/05 01:36:53;;;;;;;4.45;2.10;;;;;;;11.73;58.90;99473.31;670583;29;1289;-96
2024/01/05 01:37:14;;;;;;;4.43;2.05;;;;;;;11.78;58.50;99483.78;665332;29;1239;-96
2024/01/05 01:37:37;;;;;;;3.90;2.00;;;;;;;11.68;58.66;99467.19;670575;29;1358;-96
2024/01/05 01:38:00;;;;;;;3.28;1.80;;;;;;;11.77;58.94;99477.69;667994;29;1317;-96
2024/01/05 01:38:22;;;;;;;2.72;1.77;;;;;;;11.73;58.82;99472.47;667846;29;1383;-96
2024/01/05 01:38:43;;;;;;;2.90;1.70;;;;;;;11.71;58.90;99477.69;675608;29;1923;-96
2024/01/05 01:39:04;;;;;;;2.55;1.50;;;;;;;11.65;58.80;99465.47;670533;29;1213;-96
2024/01/05 01:39:25;;;;;;;4.95;1.50;;;;;;;11.76;59.03;99477.69;673098;29;1311;-95
2024/01/05 01:39:48;;;;;;;5.32;1.65;;;;;;;11.77;58.94;99477.69;673151;29;1266;-96
2024/01/05 01:40:10;;;;;;;6.07;1.73;;;;;;;11.77;59.28;99475.09;670354;29;1302;-96
2024/01/05 01:40:32;;;;;;;4.82;2.15;;;;;;;11.72;58.84;99461.13;673139;29;1316;-96
2024/01/05 01:40:55;;;;;;;5.50;2.10;;;;;;;11.79;58.71;99473.34;668034;29;1283;-95
2024/01/05 01:41:15;;;;;;;6.40;2.10;;;;;;;11.71;58.68;99463.72;670327;29;1330;-96
2024/01/05 01:41:39;;;;;;;5.40;1.90;;;;;;;11.75;58.98;99466.34;670617;29;1206;-96
2024/01/05 01:42:08;;;;;;;5.60;2.00;;;;;;;11.73;58.89;99465.47;670688;29;1238;-95
2024/01/05 01:42:32;;;;;;;3.58;1.70;;;;;;;11.75;58.59;99463.75;675721;29;1429;-96
2024/01/05 01:42:55;;;;;;;4.30;2.00;;;;;;;11.87;58.70;99472.50;670589;29;1208;-96
2024/01/05 01:43:30;;;;;;;3.30;1.90;;;;;;;11.83;58.77;99471.59;672997;29;1234;-96
2024/01/05 01:43:51;;;;;;;4.82;2.10;;;;;;;11.75;58.76;99458.50;673143;29;1385;-96
2024/01/05 01:44:14;;;;;;;6.20;2.20;;;;;;;11.77;58.85;99464.63;670336;29;1210;-96
2024/01/05 01:44:35;;;;;;;6.85;2.28;;;;;;;11.76;58.92;99457.66;673164;29;1332;-96
2024/01/05 01:44:56;;;;;;;5.88;2.17;;;;;;;11.82;59.22;99472.47;670525;29;1153;-96
2024/01/05 01:45:17;;;;;;;6.18;2.20;;;;;;;11.78;58.72;99461.16;667816;29;1393;-96
2024/01/05 01:45:38;;;;;;;5.07;2.03;;;;;;;11.79;58.74;99464.63;665464;29;1338;-96
2024/01/05 01:46:00;;;;;;;3.45;1.75;;;;;;;11.76;58.67;99455.06;673088;29;1200;-96
2024/01/05 01:46:23;;;;;;;3.40;1.52;;;;;;;11.77;58.80;99453.28;673078;29;1267;-96
2024/01/05 01:46:44;;;;;;;5.20;1.60;;;;;;;11.79;58.80;99454.16;670468;29;1346;-96
2024/01/05 01:47:05;;;;;;;5.20;1.60;;;;;;;11.80;59.12;99453.28;670376;29;1333;-96
2024/01/05 01:47:26;;;;;;;4.80;1.80;;;;;;;11.84;58.81;99462.91;667928;29;1215;-96
2024/01/05 01:47:49;;;;;;;2.80;1.73;;;;;;;11.90;58.88;99465.53;672848;29;1351;-95
2024/01/05 01:48:19;;;;;;;3.97;1.73;;;;;;;11.90;58.92;99464.63;670410;29;1198;-96
2024/01/05 01:48:44;;;;;;;4.00;1.75;;;;;;;11.84;58.78;99460.28;670599;29;1255;-95
2024/01/05 01:49:05;;;;;;;3.47;1.45;;;;;;;11.89;58.72;99468.13;667988;29;1129;-96
2024/01/05 01:49:28;;;;;;;3.10;1.20;;;;;;;11.84;58.77;99448.94;672949;29;1360;-96
2024/01/05 01:49:49;;;;;;;3.85;1.52;;;;;;;11.86;58.90;99461.16;670436;29;1155;-96
2024/01/05 01:50:10;;;;;;;3.03;1.88;;;;;;;11.88;58.74;99461.16;667681;29;1300;-96
2024/01/05 01:50:31;;;;;;;8.70;2.20;;;;;;;11.96;58.80;99469.88;667815;29;1397;-95
2024/01/05 01:50:55;;;;;;;9.10;2.20;;;;;;;11.89;58.73;99460.28;670429;29;1347;-96
2024/01/05 01:51:19;;;;;;;7.93;2.20;;;;;;;11.92;58.81;99463.78;670379;29;1289;-96
2024/01/05 01:51:47;;;;;;;6.82;2.25;;;;;;;11.95;58.73;99473.38;675660;29;1314;-96
2024/01/05 01:52:10;;;;;;;5.03;2.08;;;;;;;11.85;58.53;99448.09;670423;29;1363;-96
2024/01/05 01:52:37;;;;;;;3.40;2.00;;;;;;;11.83;58.85;99442.84;673016;29;1436;-95
2024/01/05 01:52:59;;;;;;;2.88;2.00;;;;;;;11.95;58.73;99464.66;670347;29;1221;-95
2024/01/05 01:53:23;;;;;;;3.15;2.10;;;;;;;11.97;58.96;99471.63;667935;29;1246;-96
2024/01/05 01:53:44;;;;;;;2.58;1.80;;;;;;;11.88;58.98;99461.16;670275;29;1233;-95
2024/01/05 01:54:06;;;;;;;3.65;2.05;;;;;;;11.90;58.95;99462.03;667907;29;1223;-96
2024/01/05 01:54:28;;;;;;;3.00;1.90;;;;;;;11.93;58.89;99462.03;670218;29;1195;-96
2024/01/05 01:54:50;;;;;;;2.40;1.80;;;;;;;11.85;58.87;99450.72;670590;29;1239;-95
2024/01/05 01:55:16;;;;;;;1.83;1.65;;;;;;;11.89;58.91;99455.94;670292;29;1279;-95
2024/01/05 01:55:38;;;;;;;2.65;1.85;;;;;;;11.94;58.77;99463.78;665365;29;1301;-96
2024/01/05 01:55:59;;;;;;;2.47;1.88;;;;;;;11.84;58.97;99451.56;665377;29;1235;-96
2024/01/05 01:56:20;;;;;;;3.55;1.80;;;;;;;11.89;58.60;99460.28;667829;29;1338;-96
2024/01/05 01:56:43;;;;;;;2.83;1.70;;;;;;;11.86;58.70;99452.44;667930;29;1176;-95
2024/01/05 01:57:05;;;;;;;2.47;1.50;;;;;;;11.90;58.92;99464.63;670367;29;1454;-95
2024/01/05 01:57:26;;;;;;;2.20;1.60;;;;;;;11.89;58.65;99452.44;673757;29;1313;-96
2024/01/05 01:57:48;;;;;;;2.42;1.58;;;;;;;11.85;58.73;99450.72;670442;29;1227;-96
2024/01/05 01:58:12;;;;;;;4.30;1.90;;;;;;;11.84;58.63;99449.81;672826;29;1438;-96
2024/01/05 01:58:33;;;;;;;3.67;1.75;;;;;;;11.91;58.99;99455.91;670451;29;1345;-95
2024/01/05 01:58:54;;;;;;;4.10;1.80;;;;;;;11.97;58.71;99466.41;667875;29;1919;-96
2024/01/05 01:59:15;;;;;;;5.03;2.03;;;;;;;12.00;58.62;99466.41;667755;29;1352;-95
2024/01/05 01:59:37;;;;;;;6.38;2.20;;;;;;;12.01;58.69;99462.94;670573;29;1259;-96
2024/01/05 02:00:01;;;;;;;5.85;2.15;;;;;;;11.95;58.48;99452.47;670529;29;1240;-96
2024/01/05 02:00:22;;;;;;;4.32;1.80;;;;;;;11.91;58.58;99448.06;670329;29;1411;-96
2024/01/05 02:00:46;;;;;;;4.07;1.70;;;;;;;11.99;58.71;99459.41;673026;29;1242;-95
2024/01/05 02:01:08;;;;;;;3.70;1.80;;;;;;;12.00;58.66;99452.47;672956;29;1344;-96
2024/01/05 02:01:29;;;;;;;4.10;1.90;;;;;;;11.92;58.98;99437.63;670410;29;1337;-96
2024/01/05 02:01:51;;;;;;;2.30;1.85;;;;;;;12.02;58.85;99454.22;667812;29;1253;-96
2024/01/05 02:02:12;;;;;;;2.88;1.80;;;;;;;11.97;58.63;99440.25;670528;29;1244;-95
2024/01/05 02:02:37;;;;;;;2.63;1.70;;;;;;;11.99;58.62;99448.97;672874;29;1211;-96
2024/01/05 02:03:00;;;;;;;2.60;1.70;;;;;;;11.98;58.76;99439.38;665362;29;1290;-95
2024/01/05 02:03:20;;;;;;;3.42;1.98;;;;;;;12.04;58.67;99449.84;670056;29;1299;-96
2024/01/05 02:03:41;;;;;;;6.32;2.30;;;;;;;12.03;58.59;99450.72;665402;29;1216;-96
2024/01/05 02:04:03;;;;;;;6.40;2.42;;;;;;;11.99;58.99;99442.88;670505;29;1177;-96
2024/01/05 02:04:25;;;;;;;5.57;2.20;;;;;;;12.06;58.52;99450.72;672961;29;1152;-96
2024/01/05 02:04:47;;;;;;;2.17;1.60;;;;;;;12.02;58.48;99443.75;670455;29;1356;-95
2024/01/05 02:05:08;;;;;;;2.58;1.55;;;;;;;12.05;58.27;99454.19;673128;29;1350;-95
2024/01/05 02:05:28;;;;;;;4.30;1.90;;;;;;;12.04;58.73;99451.59;667847;29;1200;-95
2024/01/05 02:05:52;;;;;;;6.57;2.23;;;;;;;11.98;58.56;99442.00;668022;29;1277;-96
2024/01/05 02:06:16;;;;;;;6.88;2.40;;;;;;;12.06;58.79;99447.25;670245;29;1306;-96
2024/01/05 02:06:36;;;;;;;5.05;2.00;;;;;;;11.97;58.85;99440.25;672917;29;1351;-95
2024/01/05 02:06:57;;;;;;;4.32;1.90;;;;;;;11.99;58.66;99448.97;670355;29;1453;-96
2024/01/05 02:07:22;;;;;;;6.20;2.08;;;;;;;11.92;58.66;99444.59;670446;29;1341;-96
2024/01/05 02:07:43;;;;;;;6.38;2.00;;;;;;;11.86;58.74;99436.75;668015;29;1469;-95